Time;durP1;ratioP1;P1;durP2;ratioP2;P2;SDS_P1;SDS_P2;PMS_P1;PMS_P2;Temp;Humidity;BMP_temperature;BMP_pressure;BME280_temperature;BME280_humidity;BME280_pressure;Samples;Min_cycle;Max_cycle;Signal;HPM_P1;HPM_P2
2021/06/21 00:00:43;;;;;;;10.63;2.50;;;19.90;99.90;;;;;;5032074;28;20033;-80
2021/06/21 00:03:09;;;;;;;8.52;2.35;;;20.00;99.90;;;;;;5031990;28;20068;-80
2021/06/21 00:05:35;;;;;;;12.18;3.30;;;20.20;99.90;;;;;;5031984;28;20025;-80
2021/06/21 00:08:01;;;;;;;10.40;2.55;;;20.10;99.90;;;;;;5033221;28;20025;-80
2021/06/21 00:10:26;;;;;;;9.32;2.90;;;19.90;99.90;;;;;;5033270;28;20049;-80
2021/06/21 00:12:52;;;;;;;9.30;2.45;;;19.70;99.90;;;;;;5031942;28;20021;-80
2021/06/21 00:15:21;;;;;;;10.90;3.05;;;19.70;99.90;;;;;;5031925;28;20483;-80
2021/06/21 00:17:48;;;;;;;15.88;2.80;;;19.90;99.90;;;;;;5032158;28;20032;-80
2021/06/21 00:20:15;;;;;;;13.00;2.60;;;19.90;99.90;;;;;;5031822;28;20184;-80
2021/06/21 00:22:42;;;;;;;8.98;2.47;;;19.90;99.90;;;;;;5031824;28;20528;-80
2021/06/21 00:25:09;;;;;;;8.57;2.58;;;19.80;99.90;;;;;;5031835;28;20021;-80
2021/06/21 00:27:35;;;;;;;11.00;2.38;;;19.90;99.90;;;;;;5033007;28;20033;-80
2021/06/21 00:30:07;;;;;;;10.73;2.38;;;19.90;99.90;;;;;;5033071;28;20030;-80
2021/06/21 00:32:32;;;;;;;15.05;2.88;;;19.60;99.90;;;;;;5031753;28;20029;-80
2021/06/21 00:34:58;;;;;;;9.07;2.28;;;19.70;99.90;;;;;;5031679;28;20389;-80
2021/06/21 00:37:24;;;;;;;13.35;2.50;;;19.60;99.90;;;;;;5032846;28;20045;-80
2021/06/21 00:39:50;;;;;;;7.97;1.90;;;19.50;99.90;;;;;;5033262;28;20426;-80
2021/06/21 00:42:16;;;;;;;13.88;2.47;;;19.50;99.90;;;;;;5031717;28;20116;-80
2021/06/21 00:44:42;;;;;;;10.40;2.20;;;19.50;99.90;;;;;;5031654;28;20060;-80
2021/06/21 00:47:07;;;;;;;9.90;1.88;;;19.30;99.90;;;;;;5033717;28;20032;-80
2021/06/21 00:49:33;;;;;;;10.98;1.80;;;19.40;99.90;;;;;;5036791;28;20029;-80
2021/06/21 00:51:59;;;;;;;14.45;2.53;;;19.40;99.90;;;;;;5035466;28;20028;-80
2021/06/21 00:54:25;;;;;;;9.77;2.15;;;19.30;99.90;;;;;;5036687;28;20104;-80
2021/06/21 00:56:51;;;;;;;9.95;2.15;;;19.30;99.90;;;;;;5036609;28;20030;-80
2021/06/21 00:59:17;;;;;;;8.30;2.40;;;19.40;99.90;;;;;;5035313;28;20025;-80
2021/06/21 01:01:42;;;;;;;14.82;2.67;;;19.20;99.90;;;;;;5036553;28;20472;-80
2021/06/21 01:04:08;;;;;;;15.88;2.08;;;19.20;99.90;;;;;;5036507;28;20079;-80
2021/06/21 01:06:34;;;;;;;11.05;2.13;;;19.20;99.90;;;;;;5036444;28;20108;-80
2021/06/21 01:09:00;;;;;;;11.15;2.13;;;19.10;99.90;;;;;;5035051;28;20028;-80
2021/06/21 01:11:43;;;;;;;11.98;2.08;;;19.70;99.90;;;;;;5036335;28;20473;-80
2021/06/21 01:14:22;;;;;;;9.73;2.00;;;19.80;99.90;;;;;;5035597;28;20538;-80
2021/06/21 01:16:56;;;;;;;8.77;1.92;;;19.80;99.90;;;;;;5036287;28;20617;-80
2021/06/21 01:19:41;;;;;;;;;;;20.00;99.90;;;;;;5035372;28;20080;-80
2021/06/21 01:22:12;;;;;;;8.77;2.00;;;19.90;99.90;;;;;;5036230;28;19912;-80
2021/06/21 01:25:02;;;;;;;8.52;2.13;;;19.90;99.90;;;;;;5034931;28;20018;-80
2021/06/21 01:27:46;;;;;;;9.27;1.90;;;19.90;99.90;;;;;;5034744;28;20095;-80
2021/06/21 01:30:18;;;;;;;8.45;1.83;;;19.90;99.90;;;;;;5034807;28;20036;-80
2021/06/21 01:32:51;;;;;;;11.07;1.95;;;19.90;99.90;;;;;;5034687;28;20397;-80
2021/06/21 01:35:22;;;;;;;13.23;2.05;;;20.00;99.90;;;;;;5035643;28;20108;-80
2021/06/21 01:37:51;;;;;;;7.95;1.80;;;19.90;99.90;;;;;;5034622;28;20033;-80
2021/06/21 01:40:19;;;;;;;9.25;2.03;;;19.80;99.90;;;;;;5035869;28;20017;-80
2021/06/21 01:42:50;;;;;;;15.57;2.45;;;19.90;99.90;;;;;;5034475;28;20026;-80
2021/06/21 01:45:19;;;;;;;13.07;1.83;;;19.90;99.90;;;;;;5034549;28;20378;-80
2021/06/21 01:47:49;;;;;;;8.77;1.90;;;19.80;99.90;;;;;;5035638;28;20030;-80
2021/06/21 01:50:22;;;;;;;13.38;2.58;;;19.80;99.90;;;;;;5034402;28;20040;-80
2021/06/21 01:52:57;;;;;;;9.30;2.10;;;19.80;99.90;;;;;;5035939;28;20054;-80
2021/06/21 01:55:25;;;;;;;14.40;2.30;;;19.80;99.90;;;;;;5034293;28;20027;-79
2021/06/21 01:57:52;;;;;;;9.15;1.83;;;19.70;99.90;;;;;;5034178;28;20038;-80
2021/06/21 02:00:19;;;;;;;12.20;1.90;;;19.80;99.90;;;;;;5033010;28;20021;-80
2021/06/21 02:02:46;;;;;;;9.15;1.83;;;19.70;99.90;;;;;;5034124;28;20477;-78
2021/06/21 02:05:14;;;;;;;16.08;2.22;;;19.70;99.90;;;;;;5035330;28;20026;-79
2021/06/21 02:07:43;;;;;;;9.45;2.05;;;19.40;99.90;;;;;;5033981;28;20030;-80
2021/06/21 02:10:11;;;;;;;9.77;1.83;;;19.40;99.90;;;;;;5035260;28;20044;-79
2021/06/21 02:12:37;;;;;;;10.73;2.20;;;19.40;99.90;;;;;;5035184;28;20025;-80
2021/06/21 02:15:04;;;;;;;10.18;2.15;;;19.20;99.90;;;;;;5036161;28;20064;-79
2021/06/21 02:17:31;;;;;;;11.65;1.85;;;18.90;99.90;;;;;;5033827;28;20025;-80
2021/06/21 02:19:58;;;;;;;18.08;2.58;;;19.10;99.90;;;;;;5034711;28;20033;-79
2021/06/21 02:22:27;;;;;;;10.38;1.90;;;18.90;99.90;;;;;;5034038;28;20040;-80
2021/06/21 02:24:57;;;;;;;14.68;2.25;;;18.80;99.90;;;;;;5035242;28;20115;-80
2021/06/21 02:27:24;;;;;;;10.35;2.17;;;19.00;99.90;;;;;;5035018;28;20026;-80
2021/06/21 02:29:51;;;;;;;6.85;1.63;;;19.10;99.90;;;;;;5035065;28;20025;-80
2021/06/21 02:32:19;;;;;;;11.10;2.10;;;19.00;99.90;;;;;;5034897;28;20084;-80
2021/06/21 02:34:45;;;;;;;10.63;1.88;;;18.90;99.90;;;;;;5034713;28;20026;-80
2021/06/21 02:37:11;;;;;;;13.15;2.63;;;19.10;99.90;;;;;;5034566;28;20068;-80
2021/06/21 02:39:37;;;;;;;13.85;1.70;;;19.00;99.90;;;;;;5033445;28;20455;-80
2021/06/21 02:42:04;;;;;;;12.38;2.00;;;19.10;99.90;;;;;;5033377;28;20028;-80
2021/06/21 02:44:30;;;;;;;12.50;2.33;;;19.20;99.90;;;;;;5033370;28;20440;-80
2021/06/21 02:46:56;;;;;;;8.15;1.55;;;19.50;99.90;;;;;;5016738;28;20026;-80
2021/06/21 02:49:22;;;;;;;10.27;1.75;;;19.60;99.90;;;;;;5033134;28;20481;-80
2021/06/21 02:51:53;;;;;;;9.63;1.70;;;19.50;99.90;;;;;;5033202;28;20030;-80
2021/06/21 02:54:27;;;;;;;11.38;2.17;;;19.60;99.90;;;;;;5033193;28;20029;-80
2021/06/21 02:57:19;;;;;;;10.57;1.77;;;19.50;99.90;;;;;;5033125;28;20393;-79
2021/06/21 02:59:46;;;;;;;17.35;2.13;;;19.40;99.90;;;;;;5034329;28;20025;-80
2021/06/21 03:02:15;;;;;;;15.00;2.00;;;19.20;99.90;;;;;;5032974;28;20030;-80
2021/06/21 03:04:42;;;;;;;9.98;1.58;;;19.10;99.90;;;;;;5032963;28;20445;-80
2021/06/21 03:07:12;;;;;;;10.52;2.00;;;19.20;99.90;;;;;;5032808;28;20021;-80
2021/06/21 03:09:42;;;;;;;12.20;2.10;;;19.20;99.90;;;;;;5032744;28;20032;-80
2021/06/21 03:12:09;;;;;;;8.30;1.77;;;19.20;99.90;;;;;;5032673;28;20021;-80
2021/06/21 03:14:35;;;;;;;11.40;1.83;;;19.20;99.90;;;;;;5034024;28;20025;-80
2021/06/21 03:17:06;;;;;;;11.80;1.95;;;19.20;99.90;;;;;;5032723;28;20370;-80
2021/06/21 03:19:33;;;;;;;10.35;2.13;;;19.30;99.90;;;;;;5034012;28;20021;-81
2021/06/21 03:21:59;;;;;;;13.73;2.25;;;19.30;99.90;;;;;;5033918;28;20068;-80
2021/06/21 03:24:25;;;;;;;12.25;1.95;;;19.10;99.90;;;;;;5033869;28;20033;-80
2021/06/21 03:26:52;;;;;;;13.52;2.20;;;18.80;99.90;;;;;;5032579;28;20432;-81
2021/06/21 03:29:19;;;;;;;11.60;1.77;;;18.80;99.90;;;;;;5032464;28;20080;-80
2021/06/21 03:31:51;;;;;;;15.93;2.10;;;18.80;99.90;;;;;;5033754;28;20096;-80
2021/06/21 03:34:19;;;;;;;14.73;1.88;;;18.70;99.90;;;;;;5033729;28;20021;-80
2021/06/21 03:36:45;;;;;;;9.73;1.77;;;18.40;99.90;;;;;;5032186;28;20048;-80
2021/06/21 03:39:11;;;;;;;9.98;1.90;;;18.70;99.90;;;;;;5032310;28;20071;-79
2021/06/21 03:41:37;;;;;;;14.82;2.35;;;19.00;99.90;;;;;;5032578;28;20061;-80
2021/06/21 03:44:03;;;;;;;7.63;2.22;;;19.00;99.90;;;;;;5033507;28;20021;-80
2021/06/21 03:46:30;;;;;;;12.73;2.17;;;19.00;99.90;;;;;;5033561;28;20481;-80
2021/06/21 03:48:56;;;;;;;12.70;2.45;;;19.10;99.90;;;;;;5032179;28;20045;-80
2021/06/21 03:51:22;;;;;;;9.80;1.85;;;19.20;99.90;;;;;;5032172;28;20385;-80
2021/06/21 03:53:50;;;;;;;10.02;2.15;;;19.20;99.90;;;;;;5032143;28;20055;-81
2021/06/21 03:56:15;;;;;;;9.05;1.50;;;19.40;99.90;;;;;;5033392;28;20040;-80
2021/06/21 03:58:41;;;;;;;10.52;1.60;;;19.20;99.90;;;;;;5032381;28;20473;-80
2021/06/21 04:01:07;;;;;;;9.73;1.83;;;19.30;99.90;;;;;;5033308;28;20017;-80
2021/06/21 04:03:33;;;;;;;13.90;1.92;;;19.30;99.90;;;;;;5032287;28;20489;-80
2021/06/21 04:05:59;;;;;;;19.00;2.33;;;19.20;99.90;;;;;;5033323;28;20104;-81
2021/06/21 04:08:24;;;;;;;11.90;2.03;;;19.10;99.90;;;;;;5033138;28;20104;-81
2021/06/21 04:10:51;;;;;;;11.57;1.98;;;18.90;99.90;;;;;;5031968;28;20026;-80
2021/06/21 04:13:18;;;;;;;14.02;1.90;;;18.80;99.90;;;;;;5031987;28;20022;-80
2021/06/21 04:15:45;;;;;;;12.20;2.08;;;18.90;99.90;;;;;;5033169;28;20072;-80
2021/06/21 04:18:14;;;;;;;12.85;1.90;;;19.10;99.90;;;;;;5033170;28;20068;-81
2021/06/21 04:20:41;;;;;;;11.18;2.20;;;19.10;99.90;;;;;;5031938;28;20554;-81
2021/06/21 04:23:08;;;;;;;9.27;1.73;;;19.10;99.90;;;;;;5034240;28;20033;-81
2021/06/21 04:25:34;;;;;;;13.88;2.10;;;19.10;99.90;;;;;;5035953;28;20025;-81
2021/06/21 04:28:01;;;;;;;17.70;1.75;;;19.00;99.90;;;;;;5035568;28;20082;-81
2021/06/21 04:30:26;;;;;;;11.88;1.98;;;19.00;99.90;;;;;;5037163;28;20017;-81
2021/06/21 04:32:53;;;;;;;17.58;2.15;;;19.00;99.90;;;;;;5035856;28;20021;-81
2021/06/21 04:35:21;;;;;;;10.77;1.92;;;18.90;99.90;;;;;;5036774;28;20507;-80
2021/06/21 04:37:47;;;;;;;12.63;1.75;;;18.80;99.90;;;;;;5035777;28;20035;-80
2021/06/21 04:40:16;;;;;;;10.85;1.70;;;18.80;99.90;;;;;;5036971;28;20104;-80
2021/06/21 04:42:42;;;;;;;12.10;2.28;;;18.80;99.90;;;;;;5035518;28;20029;-80
2021/06/21 04:45:09;;;;;;;9.57;2.10;;;18.90;99.90;;;;;;5035582;28;20541;-80
2021/06/21 04:47:34;;;;;;;10.20;1.85;;;18.90;99.90;;;;;;5037006;28;20358;-80
2021/06/21 04:50:04;;;;;;;10.90;2.08;;;18.90;99.90;;;;;;5035491;28;20071;-80
2021/06/21 04:52:34;;;;;;;6.50;1.60;;;19.10;99.90;;;;;;5036727;28;20014;-80
2021/06/21 04:55:01;;;;;;;8.88;1.73;;;19.10;99.90;;;;;;5036676;28;20108;-80
2021/06/21 04:57:28;;;;;;;9.85;1.75;;;19.30;99.90;;;;;;5036623;28;20037;-80
2021/06/21 04:59:54;;;;;;;14.55;1.75;;;19.40;99.90;;;;;;5035382;28;20029;-80
2021/06/21 05:02:20;;;;;;;9.52;1.85;;;19.50;99.90;;;;;;5035292;28;20087;-80
2021/06/21 05:04:46;;;;;;;8.52;2.03;;;19.40;99.90;;;;;;5035214;28;20033;-80
2021/06/21 05:07:11;;;;;;;18.33;2.47;;;19.40;99.90;;;;;;5035099;28;20025;-80
2021/06/21 05:09:37;;;;;;;6.82;1.52;;;19.40;99.90;;;;;;5035173;28;20061;-80
2021/06/21 05:12:03;;;;;;;12.10;1.80;;;19.70;99.90;;;;;;5036323;28;20029;-80
2021/06/21 05:14:29;;;;;;;10.85;1.70;;;19.50;99.90;;;;;;5036332;28;20124;-80
2021/06/21 05:16:55;;;;;;;10.80;2.03;;;19.30;99.90;;;;;;5034948;28;20112;-79
2021/06/21 05:19:21;;;;;;;11.70;1.90;;;19.10;99.90;;;;;;5034949;28;20080;-79
2021/06/21 05:21:47;;;;;;;9.98;2.20;;;19.10;99.90;;;;;;5034882;28;20125;-80
2021/06/21 05:24:12;;;;;;;8.57;1.95;;;19.10;99.90;;;;;;5034852;28;20366;-80
2021/06/21 05:26:38;;;;;;;7.80;1.77;;;19.30;99.90;;;;;;5034800;28;20021;-80
2021/06/21 05:29:04;;;;;;;11.63;1.95;;;19.30;99.90;;;;;;5036257;28;20105;-80
2021/06/21 05:31:29;;;;;;;10.23;1.73;;;19.40;99.90;;;;;;5035948;28;20523;-80
2021/06/21 05:33:55;;;;;;;11.15;2.03;;;19.50;99.90;;;;;;5034844;28;20105;-79
2021/06/21 05:36:21;;;;;;;10.38;1.85;;;19.40;99.90;;;;;;5034494;28;20504;-80
2021/06/21 05:38:47;;;;;;;13.30;2.42;;;19.50;99.90;;;;;;5036140;28;20030;-80
2021/06/21 05:41:12;;;;;;;12.68;2.10;;;19.40;99.90;;;;;;5036076;28;20030;-80
2021/06/21 05:43:38;;;;;;;16.98;2.10;;;19.30;99.90;;;;;;5034470;28;20091;-80
2021/06/21 05:46:04;;;;;;;8.40;2.03;;;19.20;99.90;;;;;;5035742;28;20052;-79
2021/06/21 05:48:30;;;;;;;9.90;1.90;;;19.20;99.90;;;;;;5034364;28;20389;-79
2021/06/21 05:51:00;;;;;;;10.10;2.25;;;19.40;99.90;;;;;;5034377;28;20021;-80
2021/06/21 05:53:28;;;;;;;17.45;2.30;;;19.30;99.90;;;;;;5034361;28;20017;-80
2021/06/21 05:55:54;;;;;;;15.55;2.50;;;19.30;99.90;;;;;;5034296;28;20071;-79
2021/06/21 05:58:19;;;;;;;10.90;1.98;;;19.30;99.90;;;;;;5035487;28;20025;-80
2021/06/21 06:00:45;;;;;;;12.55;1.75;;;19.20;99.90;;;;;;5035699;28;20026;-80
2021/06/21 06:03:11;;;;;;;8.00;1.55;;;19.30;99.90;;;;;;5034124;28;20029;-80
2021/06/21 06:05:37;;;;;;;9.60;2.35;;;19.30;99.90;;;;;;5034089;28;20477;-79
2021/06/21 06:08:02;;;;;;;8.25;1.48;;;19.40;99.90;;;;;;5033920;28;20095;-79
2021/06/21 06:10:28;;;;;;;14.55;2.05;;;19.40;99.90;;;;;;5034011;28;20022;-80
2021/06/21 06:12:54;;;;;;;13.68;1.73;;;19.50;99.90;;;;;;5033982;28;20017;-80
2021/06/21 06:15:20;;;;;;;8.80;1.60;;;19.30;99.90;;;;;;5033910;28;20025;-80
2021/06/21 06:17:45;;;;;;;9.88;1.92;;;19.20;99.90;;;;;;5035134;28;20029;-80
2021/06/21 06:20:12;;;;;;;7.13;1.50;;;19.30;99.90;;;;;;5035145;28;20025;-80
2021/06/21 06:22:37;;;;;;;9.60;1.67;;;19.50;99.90;;;;;;5033813;28;20025;-80
2021/06/21 06:25:05;;;;;;;13.90;2.35;;;19.60;99.90;;;;;;5035079;28;20448;-80
2021/06/21 06:27:31;;;;;;;16.58;2.00;;;19.60;99.90;;;;;;5033633;28;20036;-78
2021/06/21 06:29:57;;;;;;;9.25;1.80;;;19.60;99.90;;;;;;5035479;28;20100;-79
2021/06/21 06:32:22;;;;;;;14.20;2.17;;;19.90;99.90;;;;;;5034911;28;20048;-79
2021/06/21 06:34:48;;;;;;;8.48;1.58;;;20.10;99.90;;;;;;5034787;28;20056;-79
2021/06/21 06:37:14;;;;;;;9.85;1.75;;;20.00;99.90;;;;;;5034739;28;20053;-80
2021/06/21 06:39:40;;;;;;;9.25;1.80;;;20.00;99.90;;;;;;5034971;28;20033;-79
2021/06/21 06:42:06;;;;;;;10.10;1.95;;;20.00;99.90;;;;;;5034961;28;20021;-79
2021/06/21 06:44:31;;;;;;;9.40;1.30;;;20.10;99.90;;;;;;5033025;28;20021;-78
2021/06/21 06:46:57;;;;;;;13.63;2.17;;;20.20;99.90;;;;;;5033103;28;20029;-79
2021/06/21 06:49:23;;;;;;;10.52;2.08;;;20.20;99.90;;;;;;5033239;28;20032;-79
2021/06/21 06:51:54;;;;;;;8.25;1.30;;;20.30;99.90;;;;;;5033342;28;20029;-79
2021/06/21 06:54:27;;;;;;;12.88;1.85;;;20.50;99.90;;;;;;5034509;28;20487;-79
2021/06/21 06:57:00;;;;;;;11.07;1.80;;;20.50;99.90;;;;;;5033195;28;20481;-78
2021/06/21 06:59:37;;;;;;;10.43;1.75;;;20.50;99.90;;;;;;5033868;28;20484;-78
2021/06/21 07:02:21;;;;;;;8.45;1.40;;;20.40;99.90;;;;;;5033048;28;20048;-78
2021/06/21 07:04:47;;;;;;;10.73;2.03;;;20.40;99.90;;;;;;5033074;28;20116;-79
2021/06/21 07:07:13;;;;;;;5.85;1.30;;;20.60;99.90;;;;;;5032823;28;20121;-78
2021/06/21 07:09:40;;;;;;;6.95;1.55;;;20.70;99.90;;;;;;5034181;28;20385;-79
2021/06/21 07:12:06;;;;;;;9.20;1.38;;;20.80;99.90;;;;;;5034165;28;20025;-79
2021/06/21 07:14:32;;;;;;;8.70;1.42;;;20.80;99.90;;;;;;5032785;28;20112;-78
2021/06/21 07:16:59;;;;;;;6.60;1.40;;;20.90;99.90;;;;;;5034015;28;20469;-79
2021/06/21 07:19:25;;;;;;;10.77;1.65;;;20.90;99.90;;;;;;5032920;28;20087;-81
2021/06/21 07:21:53;;;;;;;9.05;1.80;;;21.00;99.90;;;;;;5034487;28;20439;-81
2021/06/21 07:24:20;;;;;;;7.68;1.77;;;20.90;99.90;;;;;;5032713;28;20121;-81
2021/06/21 07:26:47;;;;;;;9.50;1.60;;;21.00;99.90;;;;;;5034187;28;20029;-81
2021/06/21 07:29:13;;;;;;;8.98;1.75;;;21.20;99.90;;;;;;5032469;28;20032;-81
2021/06/21 07:31:38;;;;;;;6.80;1.45;;;21.40;99.90;;;;;;5034158;28;20078;-81
2021/06/21 07:34:04;;;;;;;12.13;1.65;;;21.30;99.90;;;;;;5032493;28;20026;-81
2021/06/21 07:36:31;;;;;;;5.45;1.20;;;21.40;99.90;;;;;;5033908;28;20049;-81
2021/06/21 07:38:57;;;;;;;8.75;1.50;;;21.30;99.90;;;;;;5032519;28;20036;-81
2021/06/21 07:41:23;;;;;;;17.67;1.95;;;21.30;99.90;;;;;;5033767;28;20033;-81
2021/06/21 07:43:50;;;;;;;11.82;1.75;;;21.30;99.90;;;;;;5032753;28;20026;-81
2021/06/21 07:46:17;;;;;;;8.80;1.70;;;21.20;99.90;;;;;;5032573;28;20030;-81
2021/06/21 07:48:43;;;;;;;8.25;1.80;;;21.30;99.90;;;;;;5033767;28;20030;-81
2021/06/21 07:51:14;;;;;;;6.78;1.55;;;21.30;99.90;;;;;;5033745;28;20045;-80
2021/06/21 07:53:41;;;;;;;7.43;1.20;;;21.50;99.90;;;;;;5016096;28;20029;-81
2021/06/21 07:56:08;;;;;;;8.98;1.80;;;21.70;99.90;;;;;;5033696;28;20014;-81
2021/06/21 07:58:37;;;;;;;5.97;1.83;;;21.90;99.90;;;;;;5032561;28;20026;-82
2021/06/21 08:01:04;;;;;;;9.95;1.60;;;21.90;99.90;;;;;;5032332;28;20076;-81
2021/06/21 08:03:29;;;;;;;8.90;1.33;;;21.90;99.90;;;;;;5033714;28;20125;-82
2021/06/21 08:06:00;;;;;;;9.60;1.60;;;21.80;99.90;;;;;;5036220;28;20072;-82
2021/06/21 08:08:26;;;;;;;9.93;1.48;;;21.80;99.90;;;;;;5016550;28;20037;-81
2021/06/21 08:10:52;;;;;;;13.00;1.48;;;21.80;99.90;;;;;;5035048;28;20132;-81
2021/06/21 08:13:17;;;;;;;7.32;1.80;;;21.90;99.90;;;;;;5036392;28;20018;-81
2021/06/21 08:15:43;;;;;;;7.53;1.30;;;21.90;99.90;;;;;;5033466;28;20029;-81
2021/06/21 08:18:10;;;;;;;8.82;1.58;;;21.90;99.90;;;;;;5034361;28;20057;-81
2021/06/21 08:20:39;;;;;;;9.13;1.60;;;21.90;99.90;;;;;;5033764;28;20468;-81
2021/06/21 08:23:05;;;;;;;10.70;1.77;;;22.10;99.90;;;;;;5016460;28;20042;-81
2021/06/21 08:25:31;;;;;;;8.10;1.58;;;22.30;99.90;;;;;;5016624;28;20125;-81
2021/06/21 08:27:58;;;;;;;8.63;1.35;;;22.30;99.90;;;;;;5032809;28;20049;-81
2021/06/21 08:30:24;;;;;;;5.72;1.60;;;22.40;99.90;;;;;;5032715;28;20116;-81
2021/06/21 08:32:50;;;;;;;9.02;1.77;;;22.60;99.90;;;;;;5034034;28;20105;-82
2021/06/21 08:35:16;;;;;;;10.15;1.90;;;22.80;99.90;;;;;;5032132;28;20060;-82
2021/06/21 08:37:42;;;;;;;8.35;1.45;;;22.90;99.90;;;;;;5033900;28;20037;-81
2021/06/21 08:40:09;;;;;;;6.90;1.50;;;22.90;99.90;;;;;;5033359;28;20481;-81
2021/06/21 08:42:36;;;;;;;10.20;1.95;;;22.70;99.90;;;;;;5033165;28;20022;-81
2021/06/21 08:45:03;;;;;;;11.90;1.58;;;22.70;99.90;;;;;;5032767;28;20082;-82
2021/06/21 08:47:30;;;;;;;6.60;1.33;;;22.90;99.90;;;;;;5032683;28;20060;-82
2021/06/21 08:49:56;;;;;;;4.63;1.27;;;22.90;99.90;;;;;;5033749;28;20030;-82
2021/06/21 08:52:25;;;;;;;4.85;1.35;;;23.10;99.90;;;;;;5031946;28;20030;-81
2021/06/21 08:54:53;;;;;;;7.80;1.67;;;23.20;99.90;;;;;;5033041;28;20585;-82
2021/06/21 08:57:19;;;;;;;8.07;1.50;;;23.40;99.90;;;;;;5032069;28;20029;-81
2021/06/21 08:59:44;;;;;;;11.20;1.65;;;23.30;99.90;;;;;;5031720;28;20036;-82
2021/06/21 09:02:14;;;;;;;6.28;1.00;;;23.40;99.90;;;;;;5031548;28;20474;-81
2021/06/21 09:04:40;;;;;;;5.43;1.10;;;23.50;99.90;;;;;;5031463;28;20017;-82
2021/06/21 09:07:24;;;;;;;4.80;1.10;;;23.70;99.90;;;;;;5032820;28;20025;-82
2021/06/21 09:09:50;;;;;;;7.57;1.13;;;23.60;99.90;;;;;;5035093;28;20029;-81
2021/06/21 09:12:22;;;;;;;6.32;1.33;;;23.90;99.90;;;;;;5037075;28;20018;-81
2021/06/21 09:14:48;;;;;;;4.28;1.23;;;23.70;99.90;;;;;;5035710;28;20052;-81
2021/06/21 09:17:19;;;;;;;4.90;1.42;;;23.60;99.90;;;;;;5036407;28;20028;-81
2021/06/21 09:19:57;;;;;;;6.38;1.15;;;23.70;99.90;;;;;;5035976;28;20413;-81
2021/06/21 09:22:27;;;;;;;8.45;1.35;;;24.00;99.90;;;;;;5034934;28;20426;-81
2021/06/21 09:24:58;;;;;;;8.48;1.23;;;24.30;99.90;;;;;;5034935;28;20029;-82
2021/06/21 09:27:26;;;;;;;10.48;1.50;;;24.50;99.90;;;;;;5036397;28;20385;-82
2021/06/21 09:29:52;;;;;;;6.35;1.48;;;24.70;99.90;;;;;;5034989;28;20032;-81
2021/06/21 09:32:19;;;;;;;5.07;1.40;;;24.90;99.90;;;;;;5036013;28;20022;-82
2021/06/21 09:34:45;;;;;;;9.05;1.30;;;25.00;99.90;;;;;;5034840;28;20021;-81
2021/06/21 09:37:17;;;;;;;6.57;1.25;;;25.20;99.90;;;;;;5034563;28;20469;-81
2021/06/21 09:39:45;;;;;;;3.63;1.10;;;24.90;99.90;;;;;;5034733;28;20113;-82
2021/06/21 09:42:23;;;;;;;3.58;1.20;;;25.00;99.90;;;;;;5034787;28;20507;-81
2021/06/21 09:44:49;;;;;;;4.90;1.48;;;25.20;99.90;;;;;;5036362;28;20013;-80
2021/06/21 09:47:23;;;;;;;7.78;1.27;;;25.50;99.90;;;;;;5034438;28;20388;-81
2021/06/21 09:50:18;;;;;;;5.10;1.00;;;25.70;99.90;;;;;;5035692;28;20037;-81
2021/06/21 09:52:55;;;;;;;5.05;1.30;;;25.50;99.90;;;;;;5035866;28;20421;-81
2021/06/21 09:55:21;;;;;;;8.18;1.30;;;25.70;99.90;;;;;;5034665;28;20026;-80
2021/06/21 09:57:58;;;;;;;3.45;1.30;;;26.20;99.90;;;;;;5035380;28;20034;-81
2021/06/21 10:00:24;;;;;;;6.03;1.23;;;26.10;99.90;;;;;;5036603;28;20045;-82
2021/06/21 10:03:08;;;;;;;3.45;0.98;;;26.30;99.90;;;;;;5034604;28;20040;-82
2021/06/21 10:05:40;;;;;;;11.30;1.60;;;26.40;99.90;;;;;;5034530;28;20032;-82
2021/06/21 10:08:07;;;;;;;9.20;1.27;;;26.20;99.90;;;;;;5034513;28;20029;-81
2021/06/21 10:10:34;;;;;;;8.18;1.40;;;26.00;99.90;;;;;;5035473;28;20045;-82
2021/06/21 10:13:00;;;;;;;5.32;1.35;;;26.60;99.90;;;;;;5036311;28;20464;-81
2021/06/21 10:15:26;;;;;;;6.18;1.00;;;26.90;99.90;;;;;;5035038;28;20036;-81
2021/06/21 10:17:51;;;;;;;4.22;1.02;;;26.60;99.90;;;;;;5035087;28;20052;-82
2021/06/21 10:20:20;;;;;;;5.68;1.10;;;25.80;99.90;;;;;;5032861;28;20030;-82
2021/06/21 10:22:46;;;;;;;6.68;1.00;;;26.20;99.90;;;;;;5035083;28;20109;-82
2021/06/21 10:25:12;;;;;;;5.88;1.30;;;26.40;99.90;;;;;;5035496;28;20065;-82
2021/06/21 10:27:44;;;;;;;4.47;1.08;;;26.60;99.90;;;;;;5033640;28;20484;-80
2021/06/21 10:30:16;;;;;;;4.50;1.15;;;27.20;99.90;;;;;;5033689;28;20021;-78
2021/06/21 10:32:42;;;;;;;4.68;1.10;;;27.40;99.90;;;;;;5033691;28;20508;-78
2021/06/21 10:35:12;;;;;;;3.83;1.00;;;27.70;99.90;;;;;;5034733;28;20083;-79
2021/06/21 10:37:39;;;;;;;7.05;1.10;;;27.80;99.90;;;;;;5033524;28;20045;-78
2021/06/21 10:40:09;;;;;;;3.60;1.02;;;27.90;99.90;;;;;;5034769;28;20120;-79
2021/06/21 10:42:42;;;;;;;3.25;1.02;;;28.10;99.90;;;;;;5035064;28;20504;-79
2021/06/21 10:45:17;;;;;;;4.75;1.20;;;28.00;99.90;;;;;;5033480;28;20080;-79
2021/06/21 10:47:49;;;;;;;2.65;1.02;;;28.20;99.90;;;;;;5034550;28;20477;-79
2021/06/21 10:50:18;;;;;;;4.82;1.15;;;28.50;99.90;;;;;;5034579;28;20026;-79
2021/06/21 10:52:54;;;;;;;2.65;0.98;;;28.40;99.90;;;;;;5033233;28;20385;-79
2021/06/21 10:55:23;;;;;;;3.70;0.90;;;28.00;99.90;;;;;;5033235;28;20024;-79
2021/06/21 10:58:13;;;;;;;5.43;1.08;;;27.50;99.90;;;;;;5034710;28;20033;-79
2021/06/21 11:00:48;;;;;;;4.00;0.93;;;27.60;99.90;;;;;;5033161;28;20057;-79
2021/06/21 11:03:26;;;;;;;4.30;1.30;;;28.30;99.90;;;;;;5033134;28;20026;-79
2021/06/21 11:06:23;;;;;;;5.13;1.05;;;28.70;99.90;;;;;;5033017;28;20489;-79
2021/06/21 11:08:57;;;;;;;2.42;0.95;;;29.20;99.90;;;;;;5032129;28;20029;-79
2021/06/21 11:11:35;;;;;;;4.20;0.90;;;29.00;99.90;;;;;;5032976;28;20117;-78
2021/06/21 11:14:06;;;;;;;4.35;1.20;;;29.10;99.90;;;;;;5034139;28;20025;-80
2021/06/21 11:16:32;;;;;;;3.50;1.15;;;29.30;99.90;;;;;;5034088;28;20083;-78
2021/06/21 11:19:20;;;;;;;3.92;1.02;;;29.70;99.60;;;;;;5034054;28;20477;-79
2021/06/21 11:22:06;;;;;;;2.60;1.00;;;29.60;99.90;;;;;;5032758;28;20045;-80
2021/06/21 11:24:46;;;;;;;5.25;0.90;;;30.30;97.20;;;;;;5033978;28;20489;-80
2021/06/21 11:27:13;;;;;;;3.08;0.85;;;30.70;97.30;;;;;;5033786;28;20045;-79
2021/06/21 11:29:44;;;;;;;2.60;0.77;;;30.70;97.30;;;;;;5033798;28;20076;-80
2021/06/21 11:32:12;;;;;;;6.88;0.82;;;30.70;95.50;;;;;;5032424;28;20539;-80
2021/06/21 11:34:56;;;;;;;5.00;1.17;;;30.80;95.70;;;;;;5032422;28;20021;-79
2021/06/21 11:37:50;;;;;;;2.55;0.75;;;31.10;97.90;;;;;;5032336;28;20053;-79
2021/06/21 11:40:19;;;;;;;5.07;1.02;;;30.60;95.50;;;;;;5032449;28;20481;-80
2021/06/21 11:43:06;;;;;;;2.67;0.80;;;30.90;95.20;;;;;;5032361;28;20105;-80
2021/06/21 11:45:54;;;;;;;5.55;0.95;;;30.90;94.80;;;;;;5025472;28;20497;-80
2021/06/21 11:48:32;;;;;;;3.88;0.93;;;30.90;94.40;;;;;;5032277;28;20025;-80
2021/06/21 11:51:01;;;;;;;3.25;1.08;;;31.30;93.60;;;;;;5033850;28;20418;-80
2021/06/21 11:53:29;;;;;;;4.00;1.10;;;31.40;91.80;;;;;;5033466;28;20051;-79
2021/06/21 11:55:55;;;;;;;3.08;0.82;;;31.60;93.40;;;;;;5033476;28;20045;-79
2021/06/21 11:58:32;;;;;;;3.75;1.05;;;31.90;92.20;;;;;;5032110;28;20030;-80
2021/06/21 12:01:17;;;;;;;4.40;0.77;;;32.00;91.80;;;;;;5033480;28;20571;-80
2021/06/21 12:03:44;;;;;;;2.92;0.82;;;32.20;92.10;;;;;;5033438;28;20024;-80
2021/06/21 12:06:14;;;;;;;2.10;0.70;;;32.40;90.70;;;;;;5033325;28;20030;-79
2021/06/21 12:08:40;;;;;;;3.38;0.90;;;32.40;90.10;;;;;;5033250;28;20029;-80
2021/06/21 12:11:26;;;;;;;3.30;0.93;;;31.50;89.80;;;;;;5031987;28;20428;-80
2021/06/21 12:13:56;;;;;;;5.35;1.10;;;31.70;90.70;;;;;;5032018;28;20025;-80
2021/06/21 12:16:22;;;;;;;4.43;1.17;;;31.90;87.70;;;;;;5033243;28;20033;-80
2021/06/21 12:18:59;;;;;;;3.38;0.95;;;31.30;89.30;;;;;;5015484;28;20068;-80
2021/06/21 12:21:31;;;;;;;5.68;1.10;;;30.70;90.40;;;;;;5033190;28;20384;-80
2021/06/21 12:23:57;;;;;;;3.53;1.00;;;31.10;90.80;;;;;;5033174;28;20025;-80
2021/06/21 12:26:23;;;;;;;2.42;0.88;;;32.00;90.00;;;;;;5031880;28;20030;-80
2021/06/21 12:28:49;;;;;;;6.97;1.35;;;31.80;90.60;;;;;;5033037;28;20078;-80
2021/06/21 12:31:17;;;;;;;5.45;0.90;;;31.80;90.50;;;;;;5033379;28;20044;-80
2021/06/21 12:33:44;;;;;;;3.60;0.73;;;31.30;90.00;;;;;;5031759;28;20392;-80
2021/06/21 12:36:17;;;;;;;3.67;0.93;;;30.50;92.30;;;;;;5031572;28;20044;-79
2021/06/21 12:39:06;;;;;;;2.65;0.93;;;29.80;94.10;;;;;;5031830;28;20033;-79
2021/06/21 12:41:36;;;;;;;4.90;1.15;;;30.10;93.80;;;;;;5031715;28;20036;-80
2021/06/21 12:44:06;;;;;;;4.28;0.93;;;30.30;94.50;;;;;;5033865;28;20025;-79
2021/06/21 12:46:37;;;;;;;6.32;1.40;;;29.70;94.10;;;;;;5035608;28;20030;-79
2021/06/21 12:49:11;;;;;;;6.70;1.15;;;29.30;95.20;;;;;;5036726;28;20021;-79
2021/06/21 12:51:38;;;;;;;3.55;0.93;;;28.60;94.90;;;;;;5036931;28;20021;-79